Time;durP1;ratioP1;P1;durP2;ratioP2;P2;SDS_P1;SDS_P2;PMS_P1;PMS_P2;Temp;Humidity;BMP_temperature;BMP_pressure;BME280_temperature;BME280_humidity;BME280_pressure;Samples;Min_cycle;Max_cycle;Signal;HPM_P1;HPM_P2
2022/12/15 00:40:04;;;;;;;20.42;11.52;;;;;;;-145.50;100.00;65435.88;4983856;28;20050;-64
2022/12/15 00:42:30;;;;;;;20.35;10.65;;;;;;;-145.50;100.00;65435.88;4984541;28;20054;-63
2022/12/15 00:44:57;;;;;;;17.85;10.48;;;;;;;-145.50;100.00;65435.88;4974682;28;20066;-64
2022/12/15 00:47:24;;;;;;;15.52;9.30;;;;;;;-145.50;100.00;65435.88;4988166;28;20054;-64
2022/12/15 01:20:17;;;;;;;16.75;9.65;;;;;;;-145.50;100.00;65435.88;4981530;28;20050;-63
2022/12/15 01:22:44;;;;;;;17.67;9.38;;;;;;;-145.50;100.00;65435.88;4992202;28;20057;-63
2022/12/15 01:25:11;;;;;;;20.85;10.27;;;;;;;-145.50;100.00;65435.88;4971203;28;20054;-63
2022/12/15 01:27:38;;;;;;;23.50;10.43;;;;;;;-145.50;100.00;65435.88;4986741;28;20058;-63
2022/12/15 01:30:06;;;;;;;20.08;10.05;;;;;;;-145.50;100.00;65435.88;4986468;28;20474;-63
2022/12/15 01:32:33;;;;;;;19.63;10.35;;;;;;;-145.50;100.00;65435.88;4980415;28;20043;-63
2022/12/15 01:34:59;;;;;;;20.35;9.95;;;;;;;-145.50;100.00;65435.88;4986777;28;20528;-63
2022/12/15 01:37:26;;;;;;;21.55;10.20;;;;;;;-145.50;100.00;65435.88;4972897;28;20057;-63
2022/12/15 01:42:37;;;;;;;17.92;9.98;;;;;;;-145.50;100.00;65435.88;4978758;28;20054;-64
2022/12/15 01:45:28;;;;;;;22.40;10.93;;;;;;;-145.50;100.00;65435.88;4986208;28;20071;-63
2022/12/15 01:48:04;;;;;;;15.77;9.70;;;;;;;-145.50;100.00;65435.88;4981500;28;20061;-64
2022/12/15 01:50:35;;;;;;;19.65;10.85;;;;;;;-145.50;100.00;65435.88;4984704;28;20054;-64
2022/12/15 01:53:02;;;;;;;20.58;11.40;;;;;;;-145.50;100.00;65435.88;4986263;28;20050;-64
2022/12/15 01:55:30;;;;;;;22.85;11.02;;;;;;;-145.50;100.00;65435.88;4980914;28;20083;-62
2022/12/15 01:58:02;;;;;;;17.83;9.98;;;;;;;-145.50;100.00;65435.88;4989137;28;20064;-63
2022/12/15 02:00:29;;;;;;;19.20;8.85;;;;;;;-145.50;100.00;65435.88;4991404;28;20049;-63
2022/12/15 02:02:58;;;;;;;19.15;10.52;;;;;;;-145.50;100.00;65435.88;4981786;28;20061;-63
2022/12/15 02:05:27;;;;;;;15.52;9.90;;;;;;;-145.50;100.00;65435.88;4971997;28;20050;-64
2022/12/15 02:07:53;;;;;;;19.17;9.52;;;;;;;-145.50;100.00;65435.88;4989735;28;20108;-63
2022/12/15 02:10:23;;;;;;;18.67;10.57;;;;;;;-145.50;100.00;65435.88;4986985;28;20050;-63
2022/12/15 02:12:52;;;;;;;22.55;10.10;;;;;;;-145.50;100.00;65435.88;4963431;28;20138;-63
2022/12/15 02:15:37;;;;;;;17.17;9.55;;;;;;;-145.50;100.00;65435.88;4989302;28;20121;-63
2022/12/15 02:18:39;;;;;;;20.23;10.45;;;;;;;-145.50;100.00;65435.88;4968974;28;20058;-63
2022/12/15 02:21:17;;;;;;;18.80;10.85;;;;;;;-145.50;100.00;65435.88;4980189;28;20054;-63
2022/12/15 02:23:43;;;;;;;20.10;10.47;;;;;;;-145.50;100.00;65435.88;4972025;28;20057;-63
2022/12/15 02:26:52;;;;;;;18.40;9.40;;;;;;;-145.50;100.00;65435.88;4973240;28;20058;-63
2022/12/15 02:29:42;;;;;;;19.20;9.40;;;;;;;-145.50;100.00;65435.88;4991548;28;20049;-64
2022/12/15 02:32:15;;;;;;;17.17;10.40;;;;;;;-145.50;100.00;65435.88;4985279;28;20060;-64
2022/12/15 02:34:49;;;;;;;17.08;10.15;;;;;;;-145.50;100.00;65435.88;4983970;28;20050;-63
2022/12/15 02:37:28;;;;;;;18.48;9.93;;;;;;;-145.50;100.00;65435.88;4990519;28;20062;-64
2022/12/15 02:39:54;;;;;;;22.98;10.95;;;;;;;-145.50;100.00;65435.88;4983866;28;20051;-63
2022/12/15 02:42:23;;;;;;;20.48;9.30;;;;;;;-145.50;100.00;65435.88;4987143;28;20061;-64
2022/12/15 02:44:56;;;;;;;19.02;9.48;;;;;;;-145.50;100.00;65435.88;4981761;28;20058;-63
2022/12/15 02:47:35;;;;;;;19.88;9.88;;;;;;;-145.50;100.00;65435.88;4978571;28;20065;-63
2022/12/15 02:50:32;;;;;;;21.35;10.82;;;;;;;-145.50;100.00;65435.88;4977738;28;20046;-62
2022/12/15 02:53:23;;;;;;;17.38;9.50;;;;;;;-145.50;100.00;65435.88;4983959;28;20050;-63
2022/12/15 02:55:58;;;;;;;18.50;10.27;;;;;;;-145.50;100.00;65435.88;4990304;28;20473;-63
2022/12/15 02:58:59;;;;;;;17.60;9.48;;;;;;;-145.50;100.00;65435.88;4973503;28;20061;-65
2022/12/15 03:01:37;;;;;;;17.23;9.32;;;;;;;-145.50;100.00;65435.88;4981947;28;20054;-64
2022/12/15 03:04:07;;;;;;;20.27;9.70;;;;;;;-145.50;100.00;65435.88;4978936;28;20105;-64
2022/12/15 03:06:33;;;;;;;25.00;10.40;;;;;;;-145.50;100.00;65435.88;4985537;28;20052;-63
2022/12/15 03:09:00;;;;;;;20.90;9.48;;;;;;;-145.50;100.00;65435.88;4977976;28;20055;-63
2022/12/15 03:11:27;;;;;;;18.58;9.13;;;;;;;-145.50;100.00;65435.88;4984279;28;20059;-63
2022/12/15 03:13:53;;;;;;;18.80;10.13;;;;;;;-145.50;100.00;65435.88;4974395;28;20046;-63
2022/12/15 03:16:20;;;;;;;18.38;10.13;;;;;;;-145.50;100.00;65435.88;4981171;28;20474;-63
2022/12/15 03:18:47;;;;;;;17.85;9.23;;;;;;;-145.50;100.00;65435.88;4986012;28;20046;-63
2022/12/15 03:21:13;;;;;;;21.83;11.20;;;;;;;-145.50;100.00;65435.88;4983826;28;20057;-63
2022/12/15 03:23:39;;;;;;;18.90;10.18;;;;;;;-145.50;100.00;65435.88;4987195;28;20070;-64
2022/12/15 03:26:06;;;;;;;20.60;9.52;;;;;;;-145.50;100.00;65435.88;4982999;28;20525;-63
2022/12/15 03:28:33;;;;;;;23.40;10.10;;;;;;;-145.50;100.00;65435.88;4978286;28;20057;-63
2022/12/15 03:30:59;;;;;;;21.40;9.77;;;;;;;-145.50;100.00;65435.88;4975247;28;20100;-63
2022/12/15 03:33:26;;;;;;;19.00;10.02;;;;;;;-145.50;100.00;65435.88;4990782;28;20058;-63
2022/12/15 03:35:52;;;;;;;18.80;10.23;;;;;;;-145.50;100.00;65435.88;4982876;28;20065;-63
2022/12/15 03:38:18;;;;;;;17.52;9.82;;;;;;;-145.50;100.00;65435.88;4992453;28;20054;-64
2022/12/15 03:40:45;;;;;;;16.25;9.20;;;;;;;-145.50;100.00;65435.88;4986982;28;20249;-63
2022/12/15 03:43:11;;;;;;;19.38;10.38;;;;;;;-145.50;100.00;65435.88;4976246;28;20434;-63
2022/12/15 03:45:37;;;;;;;18.05;10.20;;;;;;;-145.50;100.00;65435.88;4987371;28;20046;-63
2022/12/15 03:48:04;;;;;;;19.05;9.43;;;;;;;-145.50;100.00;65435.88;4978549;28;20775;-63
2022/12/15 03:50:30;;;;;;;19.52;10.10;;;;;;;-145.50;100.00;65435.88;4987377;28;20053;-63
2022/12/15 03:52:59;;;;;;;15.82;9.60;;;;;;;-145.50;100.00;65435.88;4988415;28;20060;-63
2022/12/15 03:55:29;;;;;;;20.88;9.75;;;;;;;-145.50;100.00;65435.88;4956371;28;20050;-63
2022/12/15 03:57:58;;;;;;;18.77;9.73;;;;;;;-145.50;100.00;65435.88;4979367;28;20057;-63
2022/12/15 04:00:25;;;;;;;17.52;9.30;;;;;;;-145.50;100.00;65435.88;4986532;28;20060;-64
2022/12/15 04:02:52;;;;;;;20.25;9.98;;;;;;;-145.50;100.00;65435.88;4988926;28;20050;-63
2022/12/15 04:05:27;;;;;;;20.05;10.73;;;;;;;-145.50;100.00;65435.88;4983810;28;20065;-63
2022/12/15 04:07:56;;;;;;;18.00;10.30;;;;;;;-145.50;100.00;65435.88;4983172;28;20065;-63
2022/12/15 04:10:24;;;;;;;19.83;10.20;;;;;;;-145.50;100.00;65435.88;4986024;28;20065;-63
2022/12/15 04:13:00;;;;;;;21.25;9.93;;;;;;;-145.50;100.00;65435.88;4985361;28;20057;-63
2022/12/15 04:15:27;;;;;;;16.98;9.45;;;;;;;-145.50;100.00;65435.88;4991467;28;20058;-63
2022/12/15 04:17:54;;;;;;;20.15;9.23;;;;;;;-145.50;100.00;65435.88;4982621;28;20050;-63
2022/12/15 04:20:21;;;;;;;19.33;10.13;;;;;;;-145.50;100.00;65435.88;4971460;28;20482;-62
2022/12/15 04:22:50;;;;;;;17.95;10.05;;;;;;;-145.50;100.00;65435.88;4979201;28;20466;-64
2022/12/15 05:31:53;;;;;;;22.83;11.90;;;;;;;-145.50;100.00;65435.88;4978704;28;20054;-64
2022/12/15 05:34:22;;;;;;;19.17;10.23;;;;;;;-145.50;100.00;65435.88;4983794;28;20057;-64
2022/12/15 05:36:49;;;;;;;20.60;10.52;;;;;;;-145.50;100.00;65435.88;4982405;28;20050;-64
2022/12/15 05:39:16;;;;;;;18.05;10.02;;;;;;;-145.50;100.00;65435.88;4980249;28;20198;-63
2022/12/15 05:41:43;;;;;;;23.77;12.00;;;;;;;-145.50;100.00;65435.88;4986950;28;20046;-64
2022/12/15 05:44:09;;;;;;;26.13;12.35;;;;;;;-145.50;100.00;65435.88;4989219;28;20085;-64
2022/12/15 05:46:36;;;;;;;24.35;11.85;;;;;;;-145.50;100.00;65435.88;4990103;28;20073;-64
2022/12/15 05:49:06;;;;;;;22.60;11.30;;;;;;;-145.50;100.00;65435.88;4978951;28;20054;-64
2022/12/15 05:51:33;;;;;;;23.70;12.10;;;;;;;-145.50;100.00;65435.88;4983580;28;20065;-64
2022/12/15 05:53:59;;;;;;;17.30;10.20;;;;;;;-145.50;100.00;65435.88;4986072;28;20054;-64
2022/12/15 05:56:27;;;;;;;21.80;11.85;;;;;;;-145.50;100.00;65435.88;4961393;28;20058;-64
2022/12/15 05:58:57;;;;;;;21.65;11.20;;;;;;;-145.50;100.00;65435.88;4987789;28;20054;-64
2022/12/15 06:01:24;;;;;;;20.95;11.65;;;;;;;-145.50;100.00;65435.88;4979492;28;20046;-64
2022/12/15 06:03:51;;;;;;;22.77;11.80;;;;;;;-145.50;100.00;65435.88;4981584;28;20057;-64
2022/12/15 06:06:18;;;;;;;19.95;11.55;;;;;;;-145.50;100.00;65435.88;4978343;28;20513;-64
2022/12/15 06:08:44;;;;;;;23.02;11.50;;;;;;;-145.50;100.00;65435.88;4979628;28;20750;-64
2022/12/15 06:11:17;;;;;;;22.63;11.63;;;;;;;-145.50;100.00;65435.88;4992552;28;20060;-64
2022/12/15 06:13:43;;;;;;;24.58;12.25;;;;;;;-145.50;100.00;65435.88;4978144;28;20473;-64
2022/12/15 06:16:20;;;;;;;22.40;11.27;;;;;;;-145.50;100.00;65435.88;4983534;28;20061;-64
2022/12/15 06:18:50;;;;;;;26.13;13.55;;;;;;;-145.50;100.00;65435.88;4975363;28;20053;-64
2022/12/15 06:21:18;;;;;;;21.45;11.85;;;;;;;-145.50;100.00;65435.88;4986364;28;20422;-63
2022/12/15 06:23:46;;;;;;;27.05;13.15;;;;;;;-145.50;100.00;65435.88;4985044;28;20089;-64
2022/12/15 06:26:22;;;;;;;24.33;12.57;;;;;;;-145.50;100.00;65435.88;4981535;28;20407;-64
2022/12/15 06:28:49;;;;;;;18.83;10.80;;;;;;;-145.50;100.00;65435.88;4981673;28;20453;-63
2022/12/15 06:31:18;;;;;;;20.20;11.80;;;;;;;-145.50;100.00;65435.88;4973093;28;20426;-64
2022/12/15 06:33:45;;;;;;;21.58;12.50;;;;;;;-145.50;100.00;65435.88;4992506;28;20070;-65
2022/12/15 06:36:13;;;;;;;26.90;13.77;;;;;;;-145.50;100.00;65435.88;4978788;28;20064;-64
2022/12/15 06:38:42;;;;;;;21.77;12.57;;;;;;;-145.50;100.00;65435.88;4985607;28;20046;-64
2022/12/15 06:41:11;;;;;;;23.00;12.98;;;;;;;-145.50;100.00;65435.88;4987207;28;20046;-63
2022/12/15 06:43:38;;;;;;;31.13;13.27;;;;;;;-145.50;100.00;65435.88;4971501;28;20778;-63
2022/12/15 06:46:05;;;;;;;25.23;12.07;;;;;;;-145.50;100.00;65435.88;4981933;28;20061;-64
2022/12/15 06:48:32;;;;;;;23.90;12.40;;;;;;;-145.50;100.00;65435.88;4984577;28;20077;-64
2022/12/15 06:51:05;;;;;;;30.67;13.45;;;;;;;-145.50;100.00;65435.88;4988508;28;20053;-64
2022/12/15 06:53:41;;;;;;;24.10;12.13;;;;;;;-145.50;100.00;65435.88;4982678;28;20054;-64
2022/12/15 06:56:16;;;;;;;24.85;12.68;;;;;;;-145.50;100.00;65435.88;4980087;28;20108;-64
2022/12/15 06:58:42;;;;;;;22.92;12.57;;;;;;;-145.50;100.00;65435.88;4972247;28;20058;-65
2022/12/15 07:01:10;;;;;;;24.40;13.13;;;;;;;-145.50;100.00;65435.88;4987724;28;20046;-63
2022/12/15 07:03:37;;;;;;;24.80;12.88;;;;;;;-145.50;100.00;65435.88;4984486;28;20054;-65
2022/12/15 07:06:08;;;;;;;25.73;13.50;;;;;;;-145.50;100.00;65435.88;4977788;28;20065;-64
2022/12/15 07:08:35;;;;;;;27.83;13.20;;;;;;;-145.50;100.00;65435.88;4978227;28;20086;-64
2022/12/15 07:11:10;;;;;;;25.35;13.25;;;;;;;-145.50;100.00;65435.88;4975578;28;20142;-65
2022/12/15 07:13:36;;;;;;;27.77;12.75;;;;;;;-145.50;100.00;65435.88;4988634;28;20069;-63
2022/12/15 07:16:06;;;;;;;25.92;13.07;;;;;;;-145.50;100.00;65435.88;4985272;28;20498;-64
2022/12/15 07:18:32;;;;;;;29.67;13.55;;;;;;;-145.50;100.00;65435.88;4990945;28;20070;-64
2022/12/15 07:21:04;;;;;;;26.40;13.75;;;;;;;-145.50;100.00;65435.88;4988477;28;20043;-64
2022/12/15 07:23:31;;;;;;;28.23;13.68;;;;;;;-145.50;100.00;65435.88;4985041;28;20475;-64
2022/12/15 07:26:18;;;;;;;30.50;13.95;;;;;;;-145.50;100.00;65435.88;4987635;28;20327;-63
2022/12/15 07:28:45;;;;;;;25.15;12.57;;;;;;;-145.50;100.00;65435.88;4983631;28;21089;-64
2022/12/15 07:31:11;;;;;;;24.33;12.85;;;;;;;-145.50;100.00;65435.88;4983697;28;20050;-64
2022/12/15 07:33:38;;;;;;;27.83;13.10;;;;;;;-145.50;100.00;65435.88;4978615;28;20062;-64
2022/12/15 07:36:07;;;;;;;40.00;13.25;;;;;;;-145.50;100.00;65435.88;4986111;28;20050;-64
2022/12/15 07:38:34;;;;;;;23.90;12.73;;;;;;;-145.50;100.00;65435.88;4979623;28;20120;-64
2022/12/15 07:41:02;;;;;;;23.10;12.15;;;;;;;-145.50;100.00;65435.88;4968422;28;20136;-63
2022/12/15 07:43:29;;;;;;;;;;;;;;;-145.50;100.00;65435.88;4972329;28;20058;-64
2022/12/15 07:45:57;;;;;;;23.67;12.43;;;;;;;-145.50;100.00;65435.88;4984101;28;20429;-64
2022/12/15 07:48:25;;;;;;;21.85;11.90;;;;;;;-145.50;100.00;65435.88;4989350;28;20082;-64
2022/12/15 07:50:56;;;;;;;26.88;12.50;;;;;;;-145.50;100.00;65435.88;4980245;28;20062;-64
2022/12/15 07:53:33;;;;;;;23.08;12.50;;;;;;;-145.50;100.00;65435.88;4981385;28;20052;-64
2022/12/15 07:56:01;;;;;;;27.25;13.95;;;;;;;-145.50;100.00;65435.88;4982185;28;20422;-63
2022/12/15 07:58:37;;;;;;;27.65;13.38;;;;;;;-145.50;100.00;65435.88;4987671;28;20105;-63
2022/12/15 08:01:09;;;;;;;26.60;13.45;;;;;;;-145.50;100.00;65435.88;4989167;28;20069;-65
2022/12/15 08:03:36;;;;;;;23.55;12.02;;;;;;;-145.50;100.00;65435.88;4985680;28;20609;-64
2022/12/15 08:06:05;;;;;;;23.95;12.27;;;;;;;-145.50;100.00;65435.88;4989239;28;20129;-63
2022/12/15 08:08:32;;;;;;;23.50;12.35;;;;;;;-145.50;100.00;65435.88;4976225;28;20054;-63
2022/12/15 08:11:08;;;;;;;25.80;13.48;;;;;;;-145.50;100.00;65435.88;4996053;28;20053;-63
2022/12/15 08:13:36;;;;;;;23.05;12.48;;;;;;;-145.50;100.00;65435.88;4985376;28;20054;-65
2022/12/15 08:16:22;;;;;;;26.38;12.98;;;;;;;-145.50;100.00;65435.88;4987423;28;20058;-64
2022/12/15 08:18:49;;;;;;;24.38;12.93;;;;;;;-145.50;100.00;65435.88;4977338;28;20054;-64
2022/12/15 08:21:15;;;;;;;25.83;12.57;;;;;;;-145.50;100.00;65435.88;4988123;28;20837;-64
2022/12/15 08:23:42;;;;;;;22.83;13.52;;;;;;;-145.50;100.00;65435.88;4987062;28;20109;-63
2022/12/15 08:26:11;;;;;;;26.17;12.90;;;;;;;-145.50;100.00;65435.88;4981731;28;20397;-63
2022/12/15 08:28:39;;;;;;;21.88;12.57;;;;;;;-145.50;100.00;65435.88;4989061;28;20463;-63
2022/12/15 08:31:08;;;;;;;20.38;12.55;;;;;;;-145.50;100.00;65435.88;4981745;28;20046;-63
2022/12/15 08:33:36;;;;;;;28.52;14.93;;;;;;;-145.50;100.00;65435.88;4982972;28;20050;-63
2022/12/15 08:36:06;;;;;;;26.80;13.82;;;;;;;-145.50;100.00;65435.88;4979734;28;20108;-63
2022/12/15 08:38:37;;;;;;;39.63;15.15;;;;;;;-145.50;100.00;65435.88;4936372;28;20062;-63
2022/12/15 08:41:19;;;;;;;24.25;12.70;;;;;;;-145.50;100.00;65435.88;4980119;28;20100;-64
2022/12/15 08:43:49;;;;;;;25.92;14.15;;;;;;;-145.50;100.00;65435.88;4988482;28;20578;-63
2022/12/15 08:46:19;;;;;;;26.70;14.32;;;;;;;-145.50;100.00;65435.88;4983608;28;20054;-63
2022/12/15 08:48:46;;;;;;;23.15;14.93;;;;;;;-145.50;100.00;65435.88;4970721;28;20054;-64
2022/12/15 08:51:13;;;;;;;28.02;14.70;;;;;;;-145.50;100.00;65435.88;4964005;28;20077;-63
2022/12/15 08:53:40;;;;;;;28.17;14.95;;;;;;;-145.50;100.00;65435.88;4977279;28;20441;-63
2022/12/15 08:56:09;;;;;;;26.83;14.40;;;;;;;-145.50;100.00;65435.88;4983210;28;20081;-63
2022/12/15 08:58:35;;;;;;;25.98;15.32;;;;;;;-145.50;100.00;65435.88;4988688;28;20053;-63
2022/12/15 09:01:11;;;;;;;29.08;15.82;;;;;;;-145.50;100.00;65435.88;4975380;28;20051;-63
2022/12/15 09:03:46;;;;;;;30.38;15.50;;;;;;;-145.50;100.00;65435.88;4991167;28;20073;-63
2022/12/15 09:06:18;;;;;;;30.50;15.65;;;;;;;-145.50;100.00;65435.88;4976409;28;20061;-63
2022/12/15 09:08:44;;;;;;;30.98;15.38;;;;;;;-145.50;100.00;65435.88;4980284;28;20055;-64
2022/12/15 09:11:15;;;;;;;29.45;16.05;;;;;;;-145.50;100.00;65435.88;4981032;28;20062;-63
2022/12/15 09:13:42;;;;;;;31.27;17.10;;;;;;;-145.50;100.00;65435.88;4983610;28;20054;-64
2022/12/15 09:16:14;;;;;;;28.95;16.27;;;;;;;-145.50;100.00;65435.88;4983338;28;20045;-65
2022/12/15 09:18:42;;;;;;;33.08;17.25;;;;;;;-145.50;100.00;65435.88;4985376;28;20049;-63
2022/12/15 09:21:10;;;;;;;28.48;16.25;;;;;;;-145.50;100.00;65435.88;4986984;28;20050;-63
2022/12/15 09:23:38;;;;;;;38.47;18.20;;;;;;;-145.50;100.00;65435.88;4973916;28;20057;-63
2022/12/15 09:26:07;;;;;;;34.75;17.48;;;;;;;-4.44;100.00;100629.28;4985521;28;20108;-63
2022/12/15 09:28:33;;;;;;;34.72;17.33;;;;;;;-4.40;100.00;100910.78;4977318;28;20062;-64
2022/12/15 09:31:24;;;;;;;31.20;16.90;;;;;;;-4.35;100.00;100908.09;4978371;28;20088;-63
2022/12/15 09:33:52;;;;;;;31.65;16.88;;;;;;;-4.28;100.00;100912.09;4986653;28;20050;-64
2022/12/15 09:36:19;;;;;;;28.75;17.15;;;;;;;-4.24;100.00;100910.28;5008920;28;20042;-63
2022/12/15 09:38:45;;;;;;;34.08;18.35;;;;;;;-4.22;100.00;100911.06;4988576;28;20065;-64
2022/12/15 09:41:21;;;;;;;32.35;17.27;;;;;;;-4.07;100.00;100923.38;4977385;28;20126;-63
2022/12/15 09:43:59;;;;;;;31.13;18.23;;;;;;;-3.99;100.00;100929.09;4982427;28;20598;-65
2022/12/15 09:46:34;;;;;;;33.13;19.40;;;;;;;-3.90;100.00;100921.97;4981649;28;20426;-63
2022/12/15 09:49:09;;;;;;;30.85;18.38;;;;;;;-3.85;100.00;100928.63;4988688;28;20054;-64
2022/12/15 09:51:46;;;;;;;34.22;20.02;;;;;;;-3.83;100.00;100926.84;4979361;28;20133;-64
2022/12/15 09:54:13;;;;;;;30.85;18.50;;;;;;;-3.75;100.00;100941.16;4989237;28;20064;-63
2022/12/15 09:56:46;;;;;;;38.58;19.02;;;;;;;-3.67;100.00;100945.09;4960767;28;20611;-64
2022/12/15 09:59:31;;;;;;;34.40;19.35;;;;;;;-3.64;100.00;100942.47;4962642;28;20452;-63
2022/12/15 10:02:35;;;;;;;40.45;20.38;;;;;;;-3.54;100.00;100934.44;4984312;28;20434;-63
2022/12/15 10:05:12;;;;;;;38.35;18.35;;;;;;;-3.50;100.00;100938.59;4984488;28;20050;-63
2022/12/15 10:07:45;;;;;;;40.65;20.40;;;;;;;-3.50;100.00;100933.44;4982107;28;20145;-64
2022/12/15 10:10:31;;;;;;;41.08;22.88;;;;;;;-3.42;100.00;100939.16;4980483;28;20435;-64
2022/12/15 10:13:04;;;;;;;37.50;20.05;;;;;;;-3.40;100.00;100933.06;4975417;28;20077;-64
2022/12/15 10:15:44;;;;;;;36.70;21.95;;;;;;;-3.35;100.00;100934.63;4979300;28;20462;-63
2022/12/15 10:18:21;;;;;;;39.75;20.98;;;;;;;-3.35;100.00;100929.50;4985222;28;20468;-63
2022/12/15 10:20:51;;;;;;;34.78;18.83;;;;;;;-3.27;100.00;100920.66;4975259;28;20081;-63
2022/12/15 10:23:17;;;;;;;33.03;20.02;;;;;;;-3.26;100.00;100922.31;4987928;28;20077;-64
2022/12/15 10:25:48;;;;;;;37.70;22.05;;;;;;;-3.23;100.00;100917.06;4971968;28;20069;-63
2022/12/15 10:29:01;;;;;;;35.40;21.08;;;;;;;-3.10;100.00;100925.13;4978734;28;20156;-64
2022/12/15 10:31:50;;;;;;;40.33;20.98;;;;;;;-3.01;100.00;100921.41;4895975;29;20052;-63
2022/12/15 10:34:28;;;;;;;31.98;17.63;;;;;;;-2.98;100.00;100921.28;4983151;28;20054;-62
2022/12/15 10:36:56;;;;;;;29.45;18.55;;;;;;;-2.94;100.00;100919.44;4987847;28;20834;-63
2022/12/15 10:39:23;;;;;;;38.28;21.27;;;;;;;-2.87;100.00;100929.44;4982147;28;20061;-63
2022/12/15 10:42:28;;;;;;;33.35;19.33;;;;;;;-2.76;100.00;100930.75;4984979;28;20054;-63
2022/12/15 10:44:56;;;;;;;33.38;19.65;;;;;;;-2.69;100.00;100934.75;4886953;29;20052;-64
2022/12/15 10:47:30;;;;;;;36.15;20.45;;;;;;;-2.65;100.00;100934.56;4893395;29;20566;-65
2022/12/15 10:50:22;;;;;;;39.25;22.90;;;;;;;-2.53;100.00;100935.84;4893804;29;20052;-63
2022/12/15 10:52:50;;;;;;;37.47;21.15;;;;;;;-2.51;100.00;100939.22;4885427;29;20079;-63
2022/12/15 10:55:38;;;;;;;41.00;20.88;;;;;;;-2.43;100.00;100921.75;4883361;29;20151;-63
2022/12/15 10:58:20;;;;;;;40.67;21.75;;;;;;;-2.33;100.00;100919.66;4875915;29;20052;-64
2022/12/15 11:01:06;;;;;;;40.50;21.65;;;;;;;-2.28;100.00;100920.28;4888944;29;20138;-63
2022/12/15 11:03:37;;;;;;;35.55;20.98;;;;;;;-2.13;100.00;100929.13;4869769;29;20060;-65
2022/12/15 11:06:14;;;;;;;39.83;21.73;;;;;;;-2.04;100.00;100933.91;4878106;29;20063;-64
2022/12/15 11:08:42;;;;;;;35.35;21.17;;;;;;;-1.99;100.00;100931.13;4891448;29;20063;-63
2022/12/15 11:14:27;;;;;;;34.88;21.50;;;;;;;-1.82;100.00;100930.44;4884480;29;20087;-63
2022/12/15 11:16:58;;;;;;;32.75;20.83;;;;;;;-1.72;100.00;100930.88;4975781;28;20046;-63
2022/12/15 11:19:33;;;;;;;35.80;21.27;;;;;;;-1.63;100.00;100925.34;4981289;28;20050;-62
2022/12/15 11:22:13;;;;;;;37.60;22.38;;;;;;;-1.53;100.00;100933.50;4979923;28;20058;-63
2022/12/15 11:24:46;;;;;;;38.70;21.00;;;;;;;-1.47;100.00;100926.34;4987877;28;20058;-63
2022/12/15 11:27:27;;;;;;;40.03;20.50;;;;;;;-1.38;100.00;100930.25;4983590;28;20062;-64
2022/12/15 11:30:00;;;;;;;37.20;21.42;;;;;;;-1.31;100.00;100930.84;4983602;28;20099;-63
2022/12/15 11:32:34;;;;;;;35.17;21.65;;;;;;;-1.24;100.00;100924.50;4975981;28;20065;-63
2022/12/15 11:35:00;;;;;;;31.67;20.52;;;;;;;-1.21;100.00;100920.06;4980095;28;20507;-63
2022/12/15 11:37:30;;;;;;;44.88;23.80;;;;;;;-1.16;100.00;100922.41;4979020;28;20058;-63
2022/12/15 11:40:39;;;;;;;38.00;20.88;;;;;;;-1.00;100.00;100926.00;4980938;28;20509;-64
2022/12/15 11:43:41;;;;;;;37.10;20.65;;;;;;;-0.91;100.00;100929.03;4984543;28;20054;-63
2022/12/15 11:46:22;;;;;;;32.30;18.52;;;;;;;-0.80;100.00;100925.06;4926683;28;20399;-63
2022/12/15 11:49:26;;;;;;;34.35;20.83;;;;;;;-0.70;100.00;100922.06;4976344;28;20149;-64
2022/12/15 11:52:16;;;;;;;34.28;20.83;;;;;;;-0.63;100.00;100911.41;4978522;28;20046;-63
2022/12/15 11:55:02;;;;;;;37.60;21.15;;;;;;;-0.53;100.00;100923.84;4986664;28;20081;-63
2022/12/15 11:57:54;;;;;;;32.20;20.35;;;;;;;-0.44;100.00;100921.66;4979922;28;20442;-63
2022/12/15 12:00:22;;;;;;;33.22;20.42;;;;;;;-0.42;100.00;100917.25;4981912;28;20043;-64
2022/12/15 12:02:57;;;;;;;34.63;21.53;;;;;;;-0.34;100.00;100914.31;4980246;28;20053;-63
2022/12/15 12:05:27;;;;;;;33.97;19.73;;;;;;;-0.33;100.00;100916.00;4989426;28;20058;-63
2022/12/15 12:08:12;;;;;;;33.90;21.13;;;;;;;-0.24;100.00;100915.53;4983020;28;20526;-63
2022/12/15 12:10:52;;;;;;;33.13;20.38;;;;;;;-0.14;100.00;100926.25;4986735;28;20049;-63
2022/12/15 12:13:45;;;;;;;34.65;21.23;;;;;;;-0.03;100.00;100920.56;4986213;28;20061;-63
2022/12/15 12:16:39;;;;;;;36.55;21.35;;;;;;;0.05;100.00;100917.63;4988988;28;21110;-64
2022/12/15 12:19:15;;;;;;;33.30;20.77;;;;;;;0.09;100.00;100924.28;4983354;28;20423;-64
2022/12/15 12:21:46;;;;;;;30.75;19.65;;;;;;;0.15;100.00;100911.91;4987396;28;20089;-63
2022/12/15 12:24:29;;;;;;;32.95;19.88;;;;;;;0.22;100.00;100914.16;4992197;28;20061;-64
2022/12/15 12:27:18;;;;;;;34.70;21.42;;;;;;;0.29;100.00;100908.63;4988268;28;20817;-65
2022/12/15 12:29:50;;;;;;;33.95;19.58;;;;;;;0.32;100.00;100907.66;4988055;28;20475;-64
2022/12/15 12:32:35;;;;;;;34.95;20.77;;;;;;;0.27;100.00;100907.88;4981915;28;20060;-63
2022/12/15 12:35:18;;;;;;;37.30;21.60;;;;;;;0.25;100.00;100898.53;4965687;28;20050;-65
2022/12/15 12:38:03;;;;;;;31.63;19.70;;;;;;;0.27;100.00;100896.72;4979926;28;20050;-64
2022/12/15 12:40:39;;;;;;;32.65;21.30;;;;;;;0.38;100.00;100895.25;4980670;28;20085;-63
2022/12/15 12:43:16;;;;;;;33.50;20.17;;;;;;;0.36;100.00;100891.91;4978949;28;20054;-64
2022/12/15 12:45:53;;;;;;;29.05;19.20;;;;;;;0.34;100.00;100892.94;4986545;28;20503;-63
2022/12/15 12:48:31;;;;;;;33.33;20.27;;;;;;;0.46;100.00;100891.47;4980102;28;20061;-64
2022/12/15 12:51:32;;;;;;;33.42;21.10;;;;;;;0.67;100.00;100899.84;4983104;28;20046;-64
2022/12/15 12:53:59;;;;;;;29.08;19.98;;;;;;;0.76;100.00;100895.00;4939625;28;20061;-64
2022/12/15 12:56:33;;;;;;;36.00;21.70;;;;;;;0.93;100.00;100883.75;4982938;28;20050;-64
2022/12/15 12:59:06;;;;;;;32.40;19.80;;;;;;;0.88;100.00;100882.34;4987952;28;20054;-64
2022/12/15 13:01:36;;;;;;;37.42;21.42;;;;;;;0.92;100.00;100881.25;4985441;28;20053;-63
2022/12/15 13:04:10;;;;;;;33.38;20.23;;;;;;;0.89;100.00;100884.03;4986962;28;20095;-64
2022/12/15 13:06:37;;;;;;;29.70;17.42;;;;;;;0.65;100.00;100884.41;4963926;28;20138;-64
2022/12/15 13:09:15;;;;;;;38.90;20.90;;;;;;;0.69;100.00;100882.50;4983771;28;20136;-64
2022/12/15 13:11:49;;;;;;;;;;;;;;;0.79;100.00;100876.75;4978965;28;20483;-62
2022/12/15 13:14:34;;;;;;;33.85;19.58;;;;;;;0.93;100.00;100875.19;4991429;28;19947;-66
2022/12/15 13:17:11;;;;;;;34.97;21.05;;;;;;;0.96;100.00;100875.00;4978260;28;20458;-66
2022/12/15 13:20:00;;;;;;;30.90;19.13;;;;;;;0.88;100.00;100865.13;4974225;28;20054;-66
2022/12/15 13:22:38;;;;;;;32.92;20.90;;;;;;;0.77;100.00;100870.03;4985403;28;20056;-67
2022/12/15 13:25:25;;;;;;;34.13;21.60;;;;;;;0.78;100.00;100876.84;4967542;28;20104;-66
2022/12/15 13:27:55;;;;;;;34.92;21.98;;;;;;;0.82;100.00;100867.19;4986401;28;20133;-66
2022/12/15 13:30:22;;;;;;;35.45;21.42;;;;;;;0.83;100.00;100871.44;4974435;28;20070;-67
2022/12/15 13:33:15;;;;;;;32.60;21.00;;;;;;;0.81;100.00;100865.53;4985164;28;20061;-67
2022/12/15 13:35:42;;;;;;;32.35;19.95;;;;;;;0.87;100.00;100860.03;4981964;28;20517;-69
2022/12/15 13:38:16;;;;;;;38.20;21.90;;;;;;;0.93;100.00;100855.34;4983950;28;20053;-67
2022/12/15 13:40:45;;;;;;;35.00;22.58;;;;;;;0.95;100.00;100847.53;4983667;28;20478;-68
2022/12/15 13:43:24;;;;;;;36.92;21.50;;;;;;;0.95;100.00;100845.78;4960069;28;20439;-67
2022/12/15 13:45:56;;;;;;;36.70;22.42;;;;;;;0.91;100.00;100846.84;4985192;28;20322;-67
2022/12/15 13:48:29;;;;;;;39.20;23.02;;;;;;;0.95;100.00;100842.38;4964336;28;20050;-67